Time;durP1;ratioP1;P1;durP2;ratioP2;P2;SDS_P1;SDS_P2;PMS_P1;PMS_P2;Temp;Humidity;BMP_temperature;BMP_pressure;BME280_temperature;BME280_humidity;BME280_pressure;Samples;Min_cycle;Max_cycle;Signal;HPM_P1;HPM_P2
2022/10/18 00:00:52;;;;;;;;;10.50;9.50;;;;;18.20;80.06;100279.69;5049450;28;45373;-78
2022/10/18 00:03:19;;;;;;;;;14.25;10.50;;;;;18.17;79.67;100274.50;5054410;28;45357;-77
2022/10/18 00:05:45;;;;;;;;;10.50;10.50;;;;;18.13;79.54;100276.47;5049048;28;45461;-76
2022/10/18 00:08:10;;;;;;;;;11.60;11.20;;;;;18.10;79.93;100273.09;5053554;28;45586;-77
2022/10/18 00:10:36;;;;;;;;;11.25;9.50;;;;;18.06;79.91;100277.75;5050835;28;45429;-77
2022/10/18 00:13:01;;;;;;;;;9.75;8.00;;;;;18.04;79.60;100287.66;5054330;28;45526;-77
2022/10/18 00:15:26;;;;;;;;;9.75;8.00;;;;;18.05;79.17;100288.50;5053930;28;46462;-77
2022/10/18 00:17:52;;;;;;;;;15.00;15.00;;;;;18.04;79.71;100287.66;5053768;28;45423;-76
2022/10/18 00:20:17;;;;;;;;;12.25;11.00;;;;;18.04;79.29;100292.97;5047299;28;45596;-77
2022/10/18 00:22:43;;;;;;;;;10.00;10.00;;;;;18.05;79.47;100285.84;5049133;28;45298;-77
2022/10/18 00:25:08;;;;;;;;;10.25;9.50;;;;;18.05;80.02;100284.03;5065437;28;47379;-77
2022/10/18 00:27:34;;;;;;;;;11.00;10.75;;;;;18.05;79.49;100281.38;5047795;27;45388;-77
2022/10/18 00:30:00;;;;;;;;;11.25;10.00;;;;;18.05;80.11;100283.19;5050868;28;45590;-77
2022/10/18 00:32:25;;;;;;;;;13.00;12.00;;;;;18.03;80.26;100291.25;5054102;28;45733;-77
2022/10/18 00:34:51;;;;;;;;;10.75;10.75;;;;;17.99;80.00;100295.03;5053847;28;46219;-77
2022/10/18 00:37:17;;;;;;;;;10.75;9.25;;;;;17.98;80.29;100301.28;5054244;28;45479;-77
2022/10/18 00:39:43;;;;;;;;;12.25;12.00;;;;;17.99;80.62;100296.81;5050067;28;45503;-77
2022/10/18 00:42:20;;;;;;;;;14.00;12.25;;;;;17.98;81.24;100303.09;5051706;28;45377;-77
2022/10/18 00:44:45;;;;;;;;;14.25;13.00;;;;;17.97;81.17;100301.38;5054238;28;45343;-78
2022/10/18 00:47:13;;;;;;;;;13.50;12.75;;;;;17.97;81.60;100296.91;5051697;28;45447;-76
2022/10/18 00:49:43;;;;;;;;;12.00;11.25;;;;;17.96;81.84;100296.97;5048271;28;45391;-77
2022/10/18 00:52:16;;;;;;;;;10.50;10.50;;;;;17.96;81.60;100300.50;5046789;28;45487;-77
2022/10/18 00:54:44;;;;;;;;;16.75;15.75;;;;;17.95;81.77;100300.59;5051479;28;45466;-77
2022/10/18 00:57:10;;;;;;;;;14.20;14.00;;;;;17.93;81.90;100298.00;5053917;28;45514;-77
2022/10/18 00:59:36;;;;;;;;;15.00;13.00;;;;;17.91;82.09;100299.91;5054108;28;45376;-77
2022/10/18 01:02:03;;;;;;;;;12.50;12.25;;;;;17.89;82.83;100299.13;5053266;28;45455;-77
2022/10/18 01:04:28;;;;;;;;;13.00;12.25;;;;;17.89;82.81;100296.44;5051032;28;45595;-77
2022/10/18 01:07:15;;;;;;;;;14.25;13.75;;;;;17.91;82.59;100307.03;5050642;28;45384;-77
2022/10/18 01:09:59;;;;;;;;;15.00;13.00;;;;;17.90;83.03;100307.97;5043343;28;45487;-77
2022/10/18 01:12:38;;;;;;;;;14.50;14.50;;;;;17.90;82.91;100298.19;5049076;28;45476;-77
2022/10/18 01:15:17;;;;;;;;;16.00;14.25;;;;;17.89;83.24;100307.13;5052052;28;45536;-77
2022/10/18 01:17:53;;;;;;;;;16.25;14.50;;;;;17.88;83.18;100300.06;5053490;28;45553;-76
2022/10/18 01:20:53;;;;;;;;;10.50;10.00;;;;;17.87;82.82;100300.13;5057372;28;45383;-77
2022/10/18 01:23:52;;;;;;;;;17.00;14.75;;;;;17.85;83.17;100302.00;5056486;28;45391;-77
2022/10/18 01:26:45;;;;;;;;;13.75;13.00;;;;;17.83;83.18;100301.22;5089174;27;46877;-77
2022/10/18 01:29:48;;;;;;;;;26.25;24.50;;;;;17.81;83.17;100295.97;5056490;28;45490;-77
2022/10/18 01:32:20;;;;;;;;;15.75;13.00;;;;;17.75;83.30;100294.50;5056072;28;45455;-78
2022/10/18 01:34:49;;;;;;;;;9.75;6.25;;;;;17.68;83.47;100298.41;5053725;28;45304;-77
2022/10/18 01:37:19;;;;;;;;;11.50;11.50;;;;;17.56;83.32;100293.66;5056517;28;45765;-77
2022/10/18 01:39:46;;;;;;;;;13.80;13.80;;;;;17.48;83.26;100287.81;5056551;28;45389;-77
2022/10/18 01:42:17;;;;;;;;;16.50;14.50;;;;;17.42;83.91;100294.34;5056726;27;45635;-77
2022/10/18 01:44:45;;;;;;;;;14.50;11.75;;;;;17.39;84.26;100293.63;5056337;28;45469;-77
2022/10/18 01:47:13;;;;;;;;;12.50;9.75;;;;;17.37;84.21;100285.69;5055840;28;45621;-77
2022/10/18 01:49:38;;;;;;;;;13.20;12.20;;;;;17.37;84.41;100284.84;5052520;28;45522;-77
2022/10/18 01:52:04;;;;;;;;;14.25;12.75;;;;;17.35;84.56;100287.56;5055446;28;45387;-77
2022/10/18 01:54:36;;;;;;;;;14.00;11.50;;;;;17.34;84.27;100295.66;5053827;28;45828;-78
2022/10/18 01:57:11;;;;;;;;;14.00;11.75;;;;;17.34;84.50;100298.31;5053998;28;47028;-77
2022/10/18 02:00:02;;;;;;;;;10.60;10.60;;;;;17.31;84.49;100288.66;5056621;28;45511;-77
2022/10/18 02:02:55;;;;;;;;;13.00;11.50;;;;;17.29;84.58;100284.34;5055487;28;45418;-78
2022/10/18 02:05:42;;;;;;;;;13.75;13.25;;;;;17.30;84.63;100284.25;5049440;28;45497;-78
2022/10/18 02:08:33;;;;;;;;;16.50;16.00;;;;;17.29;84.65;100282.53;5055493;28;46388;-77
2022/10/18 02:11:12;;;;;;;;;13.20;12.20;;;;;17.29;84.85;100285.19;5053241;28;45448;-77
2022/10/18 02:13:48;;;;;;;;;13.00;12.00;;;;;17.28;84.98;100285.28;5046608;28;45368;-77
2022/10/18 02:16:37;;;;;;;;;15.50;14.50;;;;;17.27;84.89;100279.06;5054530;28;45534;-77
2022/10/18 02:19:37;;;;;;;;;13.00;12.00;;;;;17.27;84.97;100281.75;5056240;28;45500;-77
2022/10/18 02:22:04;;;;;;;;;13.80;12.60;;;;;17.26;85.06;100282.69;5054949;28;45456;-77
2022/10/18 02:24:36;;;;;;;;;13.25;12.25;;;;;17.27;85.33;100280.88;5056077;28;45378;-78
2022/10/18 02:27:02;;;;;;;;;16.50;15.25;;;;;17.24;85.28;100276.59;5055658;28;45330;-77
2022/10/18 02:29:29;;;;;;;;;14.75;13.75;;;;;17.23;85.36;100282.84;5085290;27;45615;-77
2022/10/18 02:32:05;;;;;;;;;18.75;17.00;;;;;17.20;85.14;100279.47;5048120;28;45520;-77
2022/10/18 02:34:39;;;;;;;;;17.25;14.25;;;;;17.18;85.65;100278.69;5052666;28;45603;-77
2022/10/18 02:37:05;;;;;;;;;18.25;16.00;;;;;17.14;85.62;100277.09;5049536;28;45361;-77
2022/10/18 02:39:41;;;;;;;;;15.25;15.25;;;;;17.09;85.62;100285.34;5052317;28;46267;-77
2022/10/18 02:42:09;;;;;;;;;18.00;16.20;;;;;17.04;85.84;100282.88;5049223;28;45477;-77
2022/10/18 02:44:35;;;;;;;;;14.50;14.00;;;;;17.01;85.94;100274.16;5052313;28;45492;-77
2022/10/18 02:47:01;;;;;;;;;14.50;12.50;;;;;17.01;85.89;100279.50;5055298;28;45495;-77
2022/10/18 02:49:26;;;;;;;;;14.75;13.00;;;;;16.98;86.28;100282.28;5055630;28;45381;-77
2022/10/18 02:51:52;;;;;;;;;15.50;14.00;;;;;16.97;86.19;100280.56;5087897;27;45332;-77
2022/10/18 02:54:17;;;;;;;;;15.25;13.75;;;;;16.96;85.98;100278.84;5055336;28;45774;-77
2022/10/18 02:56:43;;;;;;;;;13.75;13.75;;;;;16.93;86.24;100286.97;5055140;28;45345;-77
2022/10/18 02:59:08;;;;;;;;;25.25;22.25;;;;;16.91;86.42;100279.06;5054787;28;45370;-77
2022/10/18 03:01:34;;;;;;;;;32.50;26.00;;;;;16.89;87.05;100280.94;5051480;28;45376;-77
2022/10/18 03:04:00;;;;;;;;;24.00;19.75;;;;;16.86;86.94;100283.75;5055385;28;45377;-77
2022/10/18 03:06:26;;;;;;;;;12.50;11.25;;;;;16.82;86.66;100297.28;5053706;28;45486;-77
2022/10/18 03:08:52;;;;;;;;;11.50;7.75;;;;;16.75;86.19;100294.06;5055272;28;45579;-77
2022/10/18 03:11:17;;;;;;;;;18.25;14.75;;;;;16.68;87.12;100295.25;5055098;28;45429;-77
2022/10/18 03:13:42;;;;;;;;;19.75;14.75;;;;;16.63;87.04;100294.59;5055307;28;45402;-77
2022/10/18 03:16:08;;;;;;;;;20.50;18.00;;;;;16.61;87.23;100294.63;5051724;28;45426;-77
2022/10/18 03:18:33;;;;;;;;;23.00;18.50;;;;;16.58;87.54;100292.13;5055032;28;46211;-77
2022/10/18 03:21:04;;;;;;;;;24.00;22.50;;;;;16.57;87.50;100294.88;5052130;28;45463;-77
2022/10/18 03:23:29;;;;;;;;;25.50;22.75;;;;;16.54;87.76;100292.34;5054840;28;45480;-77
2022/10/18 03:25:54;;;;;;;;;23.00;21.75;;;;;16.53;87.60;100294.13;5051591;28;45540;-77
2022/10/18 03:28:20;;;;;;;;;23.00;20.75;;;;;16.54;87.96;100287.03;5054785;28;46403;-77
2022/10/18 03:30:45;;;;;;;;;22.50;22.25;;;;;16.55;87.94;100288.75;5049748;28;45381;-77
2022/10/18 03:33:11;;;;;;;;;27.00;25.00;;;;;16.55;88.12;100286.09;5055194;28;45365;-77
2022/10/18 03:35:37;;;;;;;;;22.75;22.50;;;;;16.55;87.79;100299.41;5048980;28;45595;-77
2022/10/18 03:38:02;;;;;;;;;20.25;19.00;;;;;16.55;88.04;100299.41;5054932;28;45379;-77
2022/10/18 03:40:28;;;;;;;;;21.75;17.25;;;;;16.54;88.27;100297.66;5048472;28;45459;-76
2022/10/18 03:42:53;;;;;;;;;18.00;17.50;;;;;16.55;88.25;100308.25;5053740;28;45568;-77
2022/10/18 03:45:18;;;;;;;;;24.50;21.00;;;;;16.54;87.75;100305.66;5051494;28;45374;-77
2022/10/18 03:47:44;;;;;;;;;21.50;19.00;;;;;16.53;87.83;100306.59;5054895;28;45405;-77
2022/10/18 03:50:09;;;;;;;;;25.25;22.50;;;;;16.49;88.21;100308.53;5054678;28;45426;-77
2022/10/18 03:52:35;;;;;;;;;21.75;17.75;;;;;16.42;88.34;100308.88;5054587;28;45788;-77
2022/10/18 03:55:00;;;;;;;;;19.50;18.75;;;;;16.34;88.20;100306.56;5048428;28;45611;-77
2022/10/18 03:57:25;;;;;;;;;22.25;21.25;;;;;16.27;88.99;100310.41;5054314;28;46251;-77
2022/10/18 03:59:51;;;;;;;;;17.50;17.50;;;;;16.22;88.37;100315.09;5050058;28;45439;-77
2022/10/18 04:02:17;;;;;;;;;20.50;16.25;;;;;16.18;88.34;100325.00;5054234;28;45719;-77
2022/10/18 04:04:42;;;;;;;;;13.50;11.25;;;;;16.12;88.95;100322.59;5051959;28;45454;-77
2022/10/18 04:07:08;;;;;;;;;18.50;17.25;;;;;16.03;89.21;100325.66;5050182;28;46145;-77
2022/10/18 04:09:33;;;;;;;;;17.00;14.75;;;;;15.97;88.62;100333.88;5051214;28;45372;-77
2022/10/18 04:11:59;;;;;;;;;16.25;13.25;;;;;15.92;88.73;100330.59;5053888;28;45690;-77
2022/10/18 04:14:24;;;;;;;;;15.00;13.25;;;;;15.90;88.71;100327.13;5053217;28;45357;-77
2022/10/18 04:16:49;;;;;;;;;15.00;15.00;;;;;15.90;89.08;100328.00;5046186;28;45482;-77
2022/10/18 04:19:15;;;;;;;;;11.75;11.25;;;;;15.91;89.54;100331.53;5053931;28;45230;-76
2022/10/18 04:21:40;;;;;;;;;16.00;15.50;;;;;15.90;89.42;100330.66;5085043;27;45449;-77
2022/10/18 04:24:06;;;;;;;;;15.75;14.25;;;;;15.92;89.62;100342.06;5053931;28;45575;-76
2022/10/18 04:26:31;;;;;;;;;18.00;17.50;;;;;15.93;89.05;100338.47;5047833;28;46310;-77
2022/10/18 04:28:56;;;;;;;;;20.75;16.75;;;;;15.95;89.68;100341.94;5054157;28;45502;-77
2022/10/18 04:31:22;;;;;;;;;18.00;16.75;;;;;15.95;90.11;100339.28;5051207;28;45448;-77
2022/10/18 04:33:47;;;;;;;;;20.25;19.50;;;;;15.96;90.10;100346.31;5054212;28;45428;-77
2022/10/18 04:36:12;;;;;;;;;21.00;19.25;;;;;15.97;90.07;100349.84;5049274;28;46591;-77
2022/10/18 04:38:38;;;;;;;;;17.50;17.50;;;;;15.98;90.03;100348.94;5053798;28;45447;-77
2022/10/18 04:41:03;;;;;;;;;27.75;21.75;;;;;15.99;89.93;100346.19;5077927;27;45395;-77
2022/10/18 04:43:29;;;;;;;;;25.25;23.25;;;;;16.01;90.33;100346.13;5054424;28;45622;-76
2022/10/18 04:45:54;;;;;;;;;33.75;31.00;;;;;16.01;89.97;100349.66;5050687;28;45463;-77
2022/10/18 04:48:20;;;;;;;;;33.75;28.50;;;;;16.03;89.96;100350.47;5053658;28;45415;-77
2022/10/18 04:50:49;;;;;;;;;29.00;27.50;;;;;16.04;90.25;100343.34;5081739;27;45526;-77
2022/10/18 04:53:16;;;;;;;;;34.50;26.50;;;;;16.04;90.08;100344.22;5054893;28;45370;-77
2022/10/18 04:55:47;;;;;;;;;30.75;26.25;;;;;16.05;89.89;100347.75;5055020;28;45400;-76
2022/10/18 04:58:13;;;;;;;;;25.75;23.00;;;;;16.05;90.43;100355.72;5056826;28;45331;-77
2022/10/18 05:00:39;;;;;;;;;26.75;24.25;;;;;16.04;89.91;100346.88;5050553;28;45413;-77
2022/10/18 05:03:05;;;;;;;;;27.00;25.00;;;;;16.05;90.01;100351.28;5056663;28;45548;-77
2022/10/18 05:05:30;;;;;;;;;30.75;29.50;;;;;16.05;90.12;100353.06;5051819;28;46268;-77
2022/10/18 05:07:56;;;;;;;;;35.50;28.00;;;;;16.06;90.28;100362.78;5056147;28;45458;-77
2022/10/18 05:10:21;;;;;;;;;35.25;32.00;;;;;16.06;89.85;100362.78;5054319;28;45274;-77
2022/10/18 05:12:46;;;;;;;;;37.00;32.25;;;;;16.07;89.85;100364.50;5056104;28;45514;-77
2022/10/18 05:15:12;;;;;;;;;28.00;26.25;;;;;16.08;89.99;100358.25;5053997;28;46137;-77
2022/10/18 05:17:37;;;;;;;;;34.25;30.50;;;;;16.09;90.04;100356.47;5050343;28;45460;-77
2022/10/18 05:20:03;;;;;;;;;20.50;19.25;;;;;16.09;89.88;100359.97;5056220;28;45363;-76
2022/10/18 05:22:28;;;;;;;;;21.00;21.00;;;;;16.08;89.70;100358.25;5057493;28;45658;-76
2022/10/18 05:24:54;;;;;;;;;22.25;20.75;;;;;16.08;89.36;100360.06;5055882;28;46121;-76
2022/10/18 05:27:19;;;;;;;;;27.00;22.00;;;;;16.09;89.73;100367.09;5055638;28;45433;-76
2022/10/18 05:29:44;;;;;;;;;25.00;19.50;;;;;16.09;89.75;100375.09;5053048;28;45429;-76
2022/10/18 05:32:10;;;;;;;;;18.75;18.50;;;;;16.08;89.62;100382.22;5053544;28;45405;-76
2022/10/18 05:34:35;;;;;;;;;24.25;22.00;;;;;16.08;89.56;100371.56;5054800;28;45405;-77
2022/10/18 05:37:01;;;;;;;;;25.50;22.00;;;;;16.09;89.72;100367.09;5054347;28;45511;-76
2022/10/18 05:39:26;;;;;;;;;27.00;20.25;;;;;16.07;89.77;100367.16;5052894;28;45431;-76
2022/10/18 05:41:52;;;;;;;;;31.00;24.50;;;;;16.07;89.73;100366.31;5049212;28;45375;-76
2022/10/18 05:44:17;;;;;;;;;30.75;27.25;;;;;16.05;89.63;100361.91;5055293;28;46311;-76
2022/10/18 05:46:42;;;;;;;;;34.50;28.50;;;;;16.05;89.72;100363.72;5044990;28;45534;-77
2022/10/18 05:49:12;;;;;;;;;34.00;28.00;;;;;16.05;89.79;100369.03;5057058;28;45693;-75
2022/10/18 05:51:37;;;;;;;;;27.75;27.50;;;;;16.04;89.79;100368.16;5049263;28;45409;-76
2022/10/18 05:54:02;;;;;;;;;27.75;24.00;;;;;16.04;89.85;100368.16;5049127;28;46155;-76
2022/10/18 05:56:28;;;;;;;;;31.50;30.25;;;;;16.01;89.84;100365.63;5049799;28;45484;-76
2022/10/18 05:58:53;;;;;;;;;22.00;21.75;;;;;16.02;89.60;100358.50;5049224;28;45491;-76
2022/10/18 06:01:19;;;;;;;;;31.75;30.00;;;;;16.04;90.02;100359.31;5048422;28;45793;-76
2022/10/18 06:03:44;;;;;;;;;27.00;26.00;;;;;16.04;90.48;100357.53;5053350;28;46175;-76
2022/10/18 06:06:11;;;;;;;;;22.25;22.00;;;;;16.04;90.14;100367.28;5045322;28;45444;-76
2022/10/18 06:08:38;;;;;;;;;26.50;21.75;;;;;16.05;90.08;100364.56;5052566;28;45472;-76
2022/10/18 06:11:12;;;;;;;;;28.00;22.75;;;;;16.07;89.95;100369.84;5061634;27;45554;-76
2022/10/18 06:13:42;;;;;;;;;30.75;26.25;;;;;16.05;89.96;100361.91;5046015;28;45420;-75
2022/10/18 06:16:08;;;;;;;;;25.50;22.75;;;;;16.06;90.18;100365.44;5050538;28;45544;-73
2022/10/18 06:18:33;;;;;;;;;22.75;22.75;;;;;16.07;89.89;100358.31;5048309;28;45483;-74
2022/10/18 06:20:59;;;;;;;;;25.50;21.25;;;;;16.07;90.14;100355.66;5082473;27;45403;-75
2022/10/18 06:23:25;;;;;;;;;24.75;21.00;;;;;16.07;90.13;100359.19;5054982;28;46244;-74
2022/10/18 06:25:51;;;;;;;;;23.50;22.75;;;;;16.07;89.95;100361.84;5051701;28;45446;-75
2022/10/18 06:28:16;;;;;;;;;24.00;22.25;;;;;16.08;89.31;100358.25;5053930;28;46394;-75
2022/10/18 06:30:42;;;;;;;;;21.00;18.25;;;;;16.08;89.44;100358.25;5050465;28;45436;-75
2022/10/18 06:33:07;;;;;;;;;21.50;21.25;;;;;16.10;89.69;100363.50;5055086;28;46206;-75
2022/10/18 06:35:32;;;;;;;;;23.25;19.50;;;;;16.12;89.53;100364.28;5067409;27;45483;-74
2022/10/18 06:37:58;;;;;;;;;22.25;18.25;;;;;16.15;89.05;100369.50;5055058;28;45352;-75
2022/10/18 06:40:23;;;;;;;;;22.00;21.00;;;;;16.18;88.94;100370.22;5054793;28;45390;-75
2022/10/18 06:42:48;;;;;;;;;24.00;23.25;;;;;16.20;88.64;100368.38;5049745;28;47202;-74
2022/10/18 06:45:17;;;;;;;;;10.75;9.25;;;;;16.24;88.56;100377.09;5045884;28;45452;-73
2022/10/18 06:47:42;;;;;;;;;22.75;20.50;;;;;16.26;88.26;100376.06;5054843;28;45406;-74
2022/10/18 06:50:08;;;;;;;;;22.25;21.50;;;;;16.31;88.33;100378.53;5052080;28;45405;-75
2022/10/18 06:52:33;;;;;;;;;16.50;16.50;;;;;16.35;87.93;100377.47;5054189;28;45793;-74
2022/10/18 06:54:58;;;;;;;;;24.75;19.25;;;;;16.38;87.43;100380.88;5049752;28;45462;-74
2022/10/18 06:57:24;;;;;;;;;24.25;24.25;;;;;16.42;87.31;100386.94;5050847;28;45472;-74
2022/10/18 06:59:50;;;;;;;;;22.00;18.25;;;;;16.44;86.86;100394.81;5062600;27;45461;-75
2022/10/18 07:02:16;;;;;;;;;24.50;20.50;;;;;16.46;86.27;100392.97;5047985;28;45486;-74
2022/10/18 07:04:42;;;;;;;;;24.25;24.25;;;;;16.48;85.98;100391.09;5052993;28;45552;-74
2022/10/18 07:07:07;;;;;;;;;24.25;22.50;;;;;16.51;85.52;100393.63;5054238;28;45421;-75
2022/10/18 07:09:32;;;;;;;;;23.75;18.75;;;;;16.55;85.70;100395.25;5051155;28;45428;-74
2022/10/18 07:11:58;;;;;;;;;22.75;21.00;;;;;16.60;86.04;100399.41;5046706;28;46286;-74
2022/10/18 07:14:23;;;;;;;;;20.50;19.50;;;;;16.63;86.27;100395.78;5051782;28;45410;-75
2022/10/18 07:16:49;;;;;;;;;24.25;22.50;;;;;16.67;86.50;100397.38;5064138;28;45424;-74
2022/10/18 07:19:15;;;;;;;;;22.00;22.00;;;;;16.69;86.62;100399.06;5053489;28;45530;-74
2022/10/18 07:21:40;;;;;;;;;21.50;18.00;;;;;16.74;87.01;100412.16;5085446;27;47960;-74
2022/10/18 07:24:05;;;;;;;;;20.75;18.50;;;;;16.78;87.24;100407.53;5053310;27;45415;-75
2022/10/18 07:26:32;;;;;;;;;20.25;20.25;;;;;16.83;86.89;100402.88;5051671;28;45895;-73
2022/10/18 07:29:06;;;;;;;;;21.25;20.00;;;;;16.87;86.51;100402.69;5052767;28;45844;-74
2022/10/18 07:31:32;;;;;;;;;19.00;17.75;;;;;16.93;86.45;100398.84;5050960;28;46184;-74
2022/10/18 07:33:57;;;;;;;;;19.50;18.75;;;;;16.97;86.41;100396.00;5054665;28;45441;-74
2022/10/18 07:36:24;;;;;;;;;18.75;17.75;;;;;17.02;86.09;100395.78;5053939;28;45408;-74
2022/10/18 07:38:51;;;;;;;;;17.75;16.75;;;;;17.06;85.94;100395.59;5054392;28;45492;-75
2022/10/18 07:41:17;;;;;;;;;24.25;16.00;;;;;17.11;86.12;100395.34;5049197;27;45413;-74
2022/10/18 07:43:45;;;;;;;;;20.25;18.75;;;;;17.16;86.01;100396.00;5053208;28;45402;-75
2022/10/18 07:46:11;;;;;;;;;15.25;15.25;;;;;17.20;85.60;100397.59;5051935;28;45549;-74
2022/10/18 07:48:36;;;;;;;;;20.75;18.25;;;;;17.24;85.28;100393.88;5050859;27;45485;-74
2022/10/18 07:51:03;;;;;;;;;23.25;20.00;;;;;17.29;85.32;100398.94;5053954;28;45979;-74
2022/10/18 07:53:28;;;;;;;;;20.50;20.25;;;;;17.33;85.14;100395.22;5054285;28;45435;-74
2022/10/18 07:56:02;;;;;;;;;21.25;18.75;;;;;17.37;85.01;100396.81;5052073;28;45490;-74
2022/10/18 07:58:27;;;;;;;;;26.25;24.00;;;;;17.39;84.95;100390.47;5053864;28;45568;-74
2022/10/18 08:00:54;;;;;;;;;24.75;19.75;;;;;17.44;85.19;100395.56;5050376;28;45703;-75
2022/10/18 08:03:19;;;;;;;;;24.00;20.25;;;;;17.48;84.93;100385.63;5054163;28;45421;-75
2022/10/18 08:05:53;;;;;;;;;17.50;15.50;;;;;17.51;84.66;100383.66;5052121;28;45544;-75
2022/10/18 08:08:23;;;;;;;;;22.50;19.75;;;;;17.55;84.83;100389.72;5054098;28;45415;-74
2022/10/18 08:10:49;;;;;;;;;19.75;18.25;;;;;17.60;84.63;100388.53;5065399;28;47405;-74
2022/10/18 08:13:15;;;;;;;;;21.00;20.50;;;;;17.64;84.48;100378.63;5053760;28;45441;-75
2022/10/18 08:15:41;;;;;;;;;16.50;15.75;;;;;17.67;84.15;100384.69;5052360;28;45438;-74
2022/10/18 08:18:06;;;;;;;;;18.50;17.50;;;;;17.71;84.06;100380.94;5053842;28;45530;-75
2022/10/18 08:20:32;;;;;;;;;16.75;15.25;;;;;17.75;83.71;100387.84;5048054;28;46109;-75
2022/10/18 08:22:58;;;;;;;;;15.50;15.25;;;;;17.82;83.42;100387.53;5054621;28;45418;-74
2022/10/18 08:25:24;;;;;;;;;22.50;19.75;;;;;17.85;83.06;100385.56;5049117;28;45436;-74
2022/10/18 08:27:49;;;;;;;;;17.00;16.25;;;;;17.90;83.26;100382.69;5050534;28;45444;-74
2022/10/18 08:30:15;;;;;;;;;17.00;16.00;;;;;17.95;82.79;100380.63;5056766;28;45544;-74
2022/10/18 08:32:40;;;;;;;;;12.00;10.00;;;;;17.99;82.36;100382.22;5057567;28;45385;-74
2022/10/18 08:35:06;;;;;;;;;17.00;14.00;;;;;18.06;82.00;100383.66;5057656;28;45486;-74
2022/10/18 08:37:32;;;;;;;;;19.00;17.25;;;;;18.09;82.02;100375.50;5057357;28;45666;-74
2022/10/18 08:39:57;;;;;;;;;16.25;15.25;;;;;18.15;81.94;100369.81;5054671;28;45583;-75
2022/10/18 08:42:51;;;;;;;;;16.75;15.75;;;;;18.20;81.88;100364.25;5057678;28;45353;-74
2022/10/18 08:45:16;;;;;;;;;18.50;18.00;;;;;18.26;81.26;100369.28;5055593;28;45544;-74
2022/10/18 08:47:45;;;;;;;;;19.25;15.75;;;;;18.32;81.54;100375.16;5056758;28;45345;-74
2022/10/18 08:50:20;;;;;;;;;18.00;16.25;;;;;18.36;80.87;100367.84;5068476;27;47050;-75
2022/10/18 08:52:52;;;;;;;;;18.60;15.80;;;;;18.41;80.91;100365.81;5052756;28;45337;-75
2022/10/18 08:55:21;;;;;;;;;18.75;16.00;;;;;18.46;80.45;100361.94;5050563;28;45503;-75
2022/10/18 08:57:48;;;;;;;;;21.00;19.25;;;;;18.52;80.18;100360.75;5048215;28;45571;-75
2022/10/18 09:00:22;;;;;;;;;19.00;18.00;;;;;18.59;80.12;100353.34;5052876;27;45508;-75
2022/10/18 09:03:19;;;;;;;;;19.00;17.75;;;;;18.64;79.87;100351.25;5048569;28;45499;-75
2022/10/18 09:06:00;;;;;;;;;16.00;13.50;;;;;18.71;79.31;100352.66;5052192;27;45527;-74
2022/10/18 09:08:39;;;;;;;;;15.00;13.25;;;;;18.76;78.82;100343.47;5056368;28;45318;-75
2022/10/18 09:11:25;;;;;;;;;19.75;17.25;;;;;18.82;79.11;100342.25;5050500;28;45503;-75
2022/10/18 09:14:22;;;;;;;;;17.40;17.40;;;;;18.83;78.73;100343.97;5052392;28;45402;-75
2022/10/18 09:16:53;;;;;;;;;17.25;17.25;;;;;18.89;78.66;100349.00;5051692;28;45389;-75
2022/10/18 09:19:27;;;;;;;;;14.75;14.75;;;;;18.95;78.20;100348.63;5065201;28;45479;-75
2022/10/18 09:21:57;;;;;;;;;20.75;16.25;;;;;19.01;77.88;100342.97;5044928;28;45522;-75
2022/10/18 09:24:37;;;;;;;;;17.75;15.50;;;;;19.07;77.47;100339.09;5055178;28;45494;-75
2022/10/18 09:27:13;;;;;;;;;18.25;18.25;;;;;19.11;77.55;100333.47;5053182;28;45354;-75
2022/10/18 09:30:15;;;;;;;;;13.75;11.25;;;;;19.18;77.48;100323.31;5052294;28;45582;-75
2022/10/18 09:32:50;;;;;;;;;23.00;19.00;;;;;19.25;77.14;100327.38;5053027;28;45545;-75
2022/10/18 09:35:20;;;;;;;;;18.00;16.80;;;;;19.28;77.05;100324.50;5057373;28;45409;-75
2022/10/18 09:37:46;;;;;;;;;19.50;16.75;;;;;19.31;76.61;100323.47;5054013;28;45345;-75
2022/10/18 09:40:21;;;;;;;;;19.00;18.25;;;;;19.38;76.57;100324.88;5050357;28;45265;-75
2022/10/18 09:42:52;;;;;;;;;17.75;16.25;;;;;19.44;76.60;100321.81;5065511;28;45486;-76
2022/10/18 09:45:31;;;;;;;;;17.50;13.75;;;;;19.50;76.32;100322.38;5051167;28;45370;-76
2022/10/18 09:48:07;;;;;;;;;18.75;16.75;;;;;19.58;76.16;100323.75;5050843;28;45415;-75
2022/10/18 09:50:38;;;;;;;;;17.75;16.50;;;;;19.62;75.87;100323.47;5056154;28;45402;-75
2022/10/18 09:53:18;;;;;;;;;19.25;16.00;;;;;19.67;76.00;100318.72;5056266;28;45436;-75
2022/10/18 09:55:57;;;;;;;;;19.20;16.00;;;;;19.71;75.42;100306.03;5056685;28;45386;-75
2022/10/18 09:58:27;;;;;;;;;17.20;15.40;;;;;19.76;75.38;100310.19;5056314;28;45447;-75
2022/10/18 10:00:54;;;;;;;;;17.50;16.00;;;;;19.83;74.79;100310.66;5056289;28;45510;-75
2022/10/18 10:03:19;;;;;;;;;16.75;16.00;;;;;19.90;74.76;100308.47;5056589;28;46250;-76
2022/10/18 10:05:45;;;;;;;;;17.75;16.50;;;;;19.94;74.24;100312.72;5055871;28;45295;-75
2022/10/18 10:08:11;;;;;;;;;17.00;16.25;;;;;19.98;74.37;100303.53;5055773;28;45388;-75
2022/10/18 10:10:39;;;;;;;;;16.25;14.75;;;;;20.05;74.40;100307.56;5056081;28;45325;-75
2022/10/18 10:13:20;;;;;;;;;16.50;14.00;;;;;20.11;73.99;100308.03;5055501;28;46703;-75
2022/10/18 10:15:54;;;;;;;;;17.60;16.20;;;;;20.15;73.22;100300.69;5070771;28;45402;-76
2022/10/18 10:18:23;;;;;;;;;14.75;14.25;;;;;20.20;72.95;100302.16;5060992;28;45393;-75
2022/10/18 10:21:00;;;;;;;;;17.75;16.75;;;;;20.28;72.96;100303.47;5054241;28;45416;-76
2022/10/18 10:23:30;;;;;;;;;17.20;15.00;;;;;20.33;72.21;100294.22;5054597;28;48068;-75
2022/10/18 10:26:02;;;;;;;;;10.80;9.40;;;;;20.40;71.93;100292.06;5055703;28;45369;-75
2022/10/18 10:28:32;;;;;;;;;15.50;15.50;;;;;20.45;71.81;100290.81;5070841;28;45524;-75
2022/10/18 10:31:24;;;;;;;;;17.00;14.75;;;;;20.51;71.41;100289.56;5054944;28;45369;-75
2022/10/18 10:34:27;;;;;;;;;19.00;16.75;;;;;20.58;71.20;100279.34;5055214;28;46819;-75
2022/10/18 10:36:54;;;;;;;;;3.60;2.00;;;;;20.63;70.67;100277.22;5023465;28;45338;-75
2022/10/18 10:39:22;;;;;;;;;18.75;17.00;;;;;20.68;71.20;100284.00;5049431;28;45578;-75
2022/10/18 10:41:51;;;;;;;;;19.25;16.00;;;;;20.74;70.85;100267.56;5055737;28;45502;-76
2022/10/18 10:44:24;;;;;;;;;16.00;14.75;;;;;20.80;70.20;100271.63;5054725;28;46503;-76
2022/10/18 10:46:51;;;;;;;;;17.60;15.00;;;;;20.87;70.35;100270.31;5055585;28;45357;-75
2022/10/18 10:49:21;;;;;;;;;14.20;14.20;;;;;20.92;69.96;100270.00;5055152;28;45455;-75
2022/10/18 10:52:22;;;;;;;;;17.50;15.00;;;;;20.98;69.39;100258.88;5069965;28;45522;-75
2022/10/18 10:54:48;;;;;;;;;15.60;13.60;;;;;21.01;68.93;100262.22;5055175;28;45584;-75
2022/10/18 10:57:13;;;;;;;;;11.25;11.25;;;;;21.06;68.99;100252.06;5054826;28;45460;-75
2022/10/18 10:59:38;;;;;;;;;16.00;13.00;;;;;21.10;68.66;100247.38;5054230;28;45483;-75
2022/10/18 11:02:13;;;;;;;;;14.00;14.00;;;;;21.12;67.89;100246.28;5054855;28;45369;-75
2022/10/18 11:04:40;;;;;;;;;16.00;14.75;;;;;21.12;66.91;100243.59;5054924;28;45512;-76
2022/10/18 11:07:08;;;;;;;;;14.00;12.80;;;;;21.13;67.80;100234.59;5055084;28;45440;-76
2022/10/18 11:09:39;;;;;;;;;15.25;13.75;;;;;21.19;67.97;100227.97;5055351;28;45485;-76
2022/10/18 11:12:31;;;;;;;;;16.50;15.50;;;;;21.22;67.65;100228.69;5054192;28;45343;-76
2022/10/18 11:15:10;;;;;;;;;19.00;15.00;;;;;21.26;67.20;100221.28;5069723;27;45464;-76
2022/10/18 11:17:56;;;;;;;;;15.80;14.80;;;;;21.31;67.18;100210.22;5054487;28;45444;-76
2022/10/18 11:20:42;;;;;;;;;16.25;14.00;;;;;21.37;66.58;100210.69;5054296;28;45397;-76